• Join FlightAware (Why Join?)
  • Login
  • US Flag 
04:51AM EDT


 

Airport Tracker/Info


-or-


 

Live Flight TrackerFlight Track Log ✈ AAL963 ✈ 18-Jul-2013 ✈ KDFW - SBGR / GRU

Flight Track Log - Related Links

Times and Time Zones

All times are in EDT time to prevent confusion due to time zone crossing. See the AAL963 flight status page for this flight to view local times or setup timezone preferences in your user account.

Time Position Orientation Groundspeed Altitude Reporting Facility
EDT Latitude Longitude Course Direction KTS MPH feet Rate Location/Type
10:02PM 32.8570 -97.0530 191° South 196 226 1,800  Level FlightAware
10:02PM 32.8280 -97.0600 191° South 219 252 2,200 780 Climbing FlightAware
10:03PM 32.7950 -97.0670 190° South 249 287 2,600 1,020 Climbing FlightAware
10:03PM 32.7830 -97.0700 192° South 252 290 2,900 1,860 Climbing FlightAware
10:03PM 32.7440 -97.0780 190° South 259 298 4,000 1,860 Climbing FlightAware
10:04PM 32.7130 -97.0840 189° South 262 302 4,800 1,800 Climbing FlightAware
10:04PM 32.6830 -97.0800 174° South 267 307 5,500 1,620 Climbing FlightAware
10:05PM 32.6490 -97.0590 153° Southeast 278 320 6,300 1,800 Climbing FlightAware
10:05PM 32.6210 -97.0410 152° Southeast 279 321 7,200 2,160 Climbing FlightAware
10:06PM 32.5870 -97.0180 150° Southeast 282 325 8,300 2,100 Climbing FlightAware
10:06PM 32.5530 -96.9950 150° Southeast 288 331 9,300 1,860 Climbing FlightAware
10:07PM 32.5060 -96.9630 150° Southeast 291 335 10,500 1,560 Climbing FlightAware
10:08PM 32.4530 -96.9280 151° Southeast 313 360 11,500 1,080 Climbing FlightAware
10:08PM 32.3960 -96.8900 151° Southeast 345 397 12,100 780 Climbing FlightAware
10:09PM 32.3290 -96.8450 150° Southeast 377 434 12,700 1,020 Climbing FlightAware
10:10PM 32.2680 -96.8080 153° Southeast 393 452 13,600 1,560 Climbing FlightAware
10:10PM 32.2100 -96.7860 162° South 397 457 14,600 1,680 Climbing FlightAware
10:11PM 32.0969 -96.7445 163° South 412 474 16,300 1,560 Climbing FlightAware ADS-B
10:12PM 31.9954 -96.7058 162° South 416 479 17,700 1,440 Climbing FlightAware ADS-B
10:13PM 31.9375 -96.6837 162° South 426 490 18,400 1,320 Climbing FlightAware ADS-B
10:13PM 31.8803 -96.6618 162° South 434 499 19,100 1,260 Climbing FlightAware ADS-B
10:14PM 31.7545 -96.6101 161° South 450 518 20,400 1,140 Climbing FlightAware ADS-B
10:15PM 31.6915 -96.5842 161° South 459 528 21,000 1,200 Climbing FlightAware ADS-B
10:15PM 31.6304 -96.5593 161° South 462 532 21,700 1,260 Climbing FlightAware ADS-B
10:17PM 31.3781 -96.4613 163° South 476 548 24,200 1,200 Climbing FlightAware ADS-B
10:18PM 31.3139 -96.4374 162° South 478 550 24,900 1,140 Climbing FlightAware ADS-B
10:18PM 31.2502 -96.4138 162° South 480 552 25,400 1,020 Climbing FlightAware ADS-B
10:19PM 31.2166 -96.4010 162° South 480 552 25,700 1,020 Climbing FlightAware ADS-B
10:19PM 31.1797 -96.3794 150° Southeast 480 552 26,000 1,080 Climbing FlightAware ADS-B
10:19PM 31.1637 -96.3660 144° Southeast 479 551 26,200 840 Climbing FlightAware ADS-B
10:19PM 31.1446 -96.3456 138° Southeast 480 552 26,300 600 Climbing FlightAware ADS-B
10:19PM 31.1345 -96.3322 131° Southeast 480 552 26,400 660 Climbing FlightAware ADS-B
10:20PM 31.0550 -96.2035 125° Southeast 490 564 27,100 720 Climbing FlightAware ADS-B
10:21PM 31.0149 -96.1380 126° Southeast 494 568 27,500 780 Climbing FlightAware ADS-B
10:21PM 30.9740 -96.0712 126° Southeast 498 573 27,900 780 Climbing FlightAware ADS-B
10:22PM 30.8924 -95.9392 126° Southeast 504 580 28,700 780 Climbing FlightAware ADS-B
10:23PM 30.8086 -95.8043 126° Southeast 509 586 29,500 1,020 Climbing FlightAware ADS-B
10:25PM 30.6762 -95.5918 126° Southeast 499 574 31,400 1,080 Climbing FlightAware ADS-B
10:27PM 30.5520 -95.3934 126° Southeast 486 559 33,000 780 Climbing FlightAware ADS-B
10:27PM 30.5120 -95.3296 126° Southeast 487 560 33,000  Level FlightAware ADS-B
10:28PM 30.4310 -95.2011 126° Southeast 485 558 33,000  Level FlightAware ADS-B
10:29PM 30.3514 -95.0750 126° Southeast 482 555 33,000  Level FlightAware ADS-B
10:29PM 30.3258 -95.0349 126° Southeast 480 552 33,000  Level FlightAware ADS-B
10:30PM 30.3034 -95.0056 134° Southeast 482 555 33,000  Level FlightAware ADS-B
10:30PM 30.2938 -94.9954 137° Southeast 483 556 33,000  Level FlightAware ADS-B
10:30PM 30.2605 -94.9680 147° Southeast 485 558 33,000  Level FlightAware ADS-B
10:30PM 30.2471 -94.9596 152° Southeast 486 559 33,000  Level FlightAware ADS-B
10:31PM 30.2094 -94.9410 157° South 487 560 33,000  Level FlightAware ADS-B
10:31PM 30.1849 -94.9285 156° South 486 559 33,000  Level FlightAware ADS-B
10:31PM 30.1242 -94.8919 152° Southeast 487 560 33,000  Level FlightAware ADS-B
10:33PM 29.8833 -94.7424 151° Southeast 486 559 33,000  Level FlightAware ADS-B
10:33PM 29.8552 -94.7244 151° Southeast 486 559 33,000  Level FlightAware ADS-B
10:34PM 29.8149 -94.6934 146° Southeast 484 557 33,000  Level FlightAware ADS-B
10:34PM 29.7830 -94.6636 141° Southeast 483 556 33,000  Level FlightAware ADS-B
10:35PM 29.7337 -94.6099 137° Southeast 483 556 33,000  Level FlightAware ADS-B
10:35PM 29.6848 -94.5556 136° Southeast 482 555 33,000  Level FlightAware ADS-B
10:36PM 29.6360 -94.5018 136° Southeast 482 555 33,000  Level FlightAware ADS-B
10:36PM 29.5870 -94.4478 136° Southeast 482 555 33,000  Level FlightAware ADS-B
10:37PM 29.5373 -94.3933 136° Southeast 482 555 33,000  Level FlightAware ADS-B
10:37PM 29.4889 -94.3404 136° Southeast 482 555 33,000  Level FlightAware ADS-B
10:38PM 29.4403 -94.2874 136° Southeast 480 552 33,000  Level FlightAware ADS-B
10:38PM 29.3913 -94.2355 137° Southeast 478 550 33,000  Level FlightAware ADS-B
10:39PM 29.3420 -94.1834 137° Southeast 478 550 33,000  Level FlightAware ADS-B
10:39PM 29.2921 -94.1305 137° Southeast 479 551 33,000  Level FlightAware ADS-B
10:40PM 29.2425 -94.0781 137° Southeast 480 552 33,000  Level FlightAware ADS-B
10:40PM 29.1936 -94.0264 137° Southeast 480 552 33,000  Level FlightAware ADS-B
10:41PM 29.1429 -93.9727 137° Southeast 482 555 33,000  Level FlightAware ADS-B
10:41PM 29.0978 -93.9247 137° Southeast 479 551 33,000 -120 Level Houston Center
10:42PM 29.0011 -93.8231 137° Southeast 479 551 32,900 -60 Descending Houston Center
10:43PM 28.9017 -93.7169 137° Southeast 486 559 32,900  Level Houston Center
10:44PM 28.7981 -93.6103 138° Southeast 491 565 33,000  Climbing Houston Center
10:45PM 28.7014 -93.5094 138° Southeast 485 558 32,900 -60 Descending Houston Center
10:46PM 28.6022 -93.4042 137° Southeast 488 562 32,900  Level Houston Center
10:47PM 28.4986 -93.2981 138° Southeast 488 562 33,000  Climbing Houston Center
10:48PM 28.4014 -93.1961 137° Southeast 490 564 33,000  Level Houston Center
10:49PM 28.2822 -93.0717 137° Southeast 488 562 33,000 -60 Level Houston Center
10:50PM 28.1814 -92.9694 138° Southeast 487 560 32,900 -60 Descending Houston Center
10:51PM 28.0814 -92.8664 138° Southeast 487 560 32,900  Level Houston Center
10:52PM 27.9808 -92.7628 138° Southeast 489 563 32,900  Level Houston Center
10:54PM 27.8797 -92.6611 138° Southeast 489 563 32,900  Level Houston Center
10:55PM 27.7767 -92.5586 139° Southeast 492 566 32,900  Level Houston Center
10:56PM 27.6756 -92.4536 137° Southeast 493 567 32,900  Level Houston Center
10:57PM 27.5739 -92.3517 138° Southeast 491 565 33,000  Climbing Houston Center
10:58PM 27.4717 -92.2481 138° Southeast 494 568 32,900 -60 Descending Houston Center
10:59PM 27.3694 -92.1450 138° Southeast 493 567 32,900  Level Houston Center
11:00PM 27.2464 -92.0222 138° Southeast 494 568 33,000  Climbing Houston Center
11:01PM 27.1419 -91.9214 139° Southeast 495 570 32,900  Descending Houston Center
11:02PM 27.0519 -91.8492 144° Southeast 496 571 33,000  Climbing Houston Center
11:03PM 26.9161 -91.7408 145° Southeast 498 573 32,900 -60 Descending Houston Center
11:04PM 26.8028 -91.6528 145° Southeast 498 573 32,900  Level Houston Center
11:05PM 26.7017 -91.5758 146° Southeast 497 572 33,000  Climbing Houston Center
11:07PM 26.5090 -91.4153 143° Southeast  Level FlightAware Approximate
11:14PM 25.7459 -90.8147 145° Southeast  Level FlightAware Approximate
11:15PM 25.6369 -90.7293 145° Southeast  Level FlightAware Approximate
11:16PM 25.5278 -90.6440 145° Southeast  Level FlightAware Approximate
11:17PM 25.4186 -90.5589 145° Southeast  Level FlightAware Approximate
11:18PM 25.3094 -90.4739 145° Southeast  Level FlightAware Approximate
11:19PM 25.2001 -90.3891 145° Southeast  Level FlightAware Approximate
11:20PM 25.0909 -90.3044 145° Southeast  Level FlightAware Approximate
11:21PM 24.9815 -90.2199 145° Southeast  Level FlightAware Approximate
11:22PM 24.8721 -90.1356 145° Southeast  Level FlightAware Approximate
11:23PM 24.7627 -90.0514 145° Southeast  Level FlightAware Approximate
11:24PM 24.6532 -89.9673 145° Southeast  Level FlightAware Approximate
11:25PM 24.5434 -89.8832 145° Southeast  Level FlightAware Approximate
11:26PM 24.4498 -89.7810 125° Southeast  Level FlightAware Approximate
11:27PM 24.3729 -89.6609 125° Southeast  Level FlightAware Approximate
11:28PM 24.2959 -89.5409 125° Southeast  Level FlightAware Approximate
11:29PM 24.2187 -89.4211 125° Southeast  Level FlightAware Approximate
11:30PM 24.1415 -89.3014 125° Southeast  Level FlightAware Approximate
11:31PM 24.0642 -89.1818 125° Southeast  Level FlightAware Approximate
11:32PM 23.9868 -89.0625 125° Southeast  Level FlightAware Approximate
11:33PM 23.9093 -88.9432 125° Southeast  Level FlightAware Approximate
11:34PM 23.8317 -88.8241 125° Southeast  Level FlightAware Approximate
11:35PM 23.7538 -88.7053 126° Southeast  Level FlightAware Approximate
11:36PM 23.6756 -88.5869 126° Southeast  Level FlightAware Approximate
11:37PM 23.5972 -88.4686 126° Southeast  Level FlightAware Approximate
11:38PM 23.5187 -88.3504 126° Southeast  Level FlightAware Approximate
11:39PM 23.4402 -88.2324 126° Southeast  Level FlightAware Approximate
11:39PM 23.4090 -87.7190 126° Southeast 502 578 35,000  Level FlightAware
11:40PM 23.3616 -88.1145 126° Southeast  Level FlightAware Approximate
11:40PM 23.3620 -87.6220 118° Southeast 502 578 35,000  Level FlightAware
11:41PM 23.3270 -87.5520 119° Southeast 502 578 35,000  Level FlightAware
11:42PM 23.2560 -87.4130 119° Southeast 499 574 35,000  Level FlightAware
11:43PM 23.1950 -87.2930 119° Southeast 498 573 35,000  Level FlightAware
11:43PM 23.1250 -87.1580 119° Southeast 497 572 35,000  Level FlightAware
11:44PM 23.0860 -87.0780 118° Southeast 498 573 35,000  Level FlightAware
11:45PM 23.0290 -86.9710 120° Southeast 495 570 35,000  Level FlightAware
11:45PM 22.9930 -86.8980 118° Southeast 495 570 35,000  Level FlightAware
11:46PM 22.9530 -86.8220 120° Southeast 495 570 35,000  Level FlightAware
11:47PM 22.8950 -86.7060 118° Southeast 495 570 35,000  Level FlightAware
11:48PM 22.8500 -86.6220 120° Southeast 495 570 35,000  Level FlightAware
11:48PM 22.8100 -86.5440 119° Southeast 494 568 35,000  Level FlightAware
11:49PM 22.7660 -86.4620 120° Southeast 495 570 35,000  Level FlightAware
11:50PM 22.7170 -86.3820 124° Southeast 493 567 35,000  Level FlightAware
11:50PM 22.6590 -86.2910 125° Southeast 490 564 35,000  Level FlightAware
11:51PM 22.5970 -86.1950 125° Southeast 490 564 35,000  Level FlightAware
11:52PM 22.5520 -86.1270 126° Southeast 490 564 35,000  Level FlightAware
11:52PM 22.4890 -86.0280 125° Southeast 490 564 35,000  Level FlightAware
11:53PM 22.4440 -85.9480 121° Southeast 490 564 35,000  Level FlightAware
11:54PM 22.3940 -85.8540 120° Southeast 490 564 35,000  Level FlightAware
11:54PM 22.3560 -85.7800 119° Southeast 490 564 35,000  Level FlightAware
11:55PM 22.3160 -85.7030 119° Southeast 489 563 35,000  Level FlightAware
11:56PM 22.2820 -85.6380 119° Southeast 489 563 35,000  Level FlightAware
11:56PM 22.2260 -85.5330 120° Southeast 490 564 35,000  Level FlightAware
11:58PM 22.1530 -85.3920 119° Southeast 490 564 35,000  Level FlightAware
11:58PM 22.1180 -85.3250 119° Southeast 490 564 35,000  Level FlightAware
12:00AM 22.0190 -85.1380 120° Southeast 491 565 35,000  Level FlightAware
12:01AM 21.9510 -85.0100 120° Southeast 493 567 35,000  Level FlightAware
12:01AM 21.9160 -84.9420 119° Southeast 493 567 35,000  Level FlightAware
12:02AM 21.8700 -84.8530 119° Southeast 493 567 35,000  Level FlightAware
12:03AM 21.8250 -84.7650 119° Southeast 493 567 35,000  Level FlightAware
12:03AM 21.7910 -84.6990 119° Southeast 493 567 35,000  Level FlightAware
12:04AM 21.7450 -84.6100 119° Southeast 493 567 35,000  Level FlightAware
12:05AM 21.7110 -84.5440 119° Southeast 493 567 35,000  Level FlightAware
12:06AM 21.6660 -84.4570 119° Southeast 493 567 35,000  Level FlightAware
12:06AM 21.6320 -84.3910 119° Southeast 493 567 35,000  Level FlightAware
12:07AM 21.5870 -84.3030 119° Southeast 493 567 35,000  Level FlightAware
12:08AM 21.5440 -84.2200 119° Southeast 493 567 35,000  Level FlightAware
12:08AM 21.5090 -84.1520 119° Southeast 493 567 35,000  Level FlightAware
12:09AM 21.4740 -84.0850 119° Southeast 493 567 35,000  Level FlightAware
12:10AM 21.4290 -83.9970 119° Southeast 493 567 35,000  Level FlightAware
12:12AM 21.2548 -83.8328 139° Southeast  Level Estimated
12:13AM 21.1542 -83.7383 139° Southeast  Level Estimated
12:14AM 21.0536 -83.6439 139° Southeast  Level Estimated
12:15AM 20.9529 -83.5496 139° Southeast  Level Estimated
12:16AM 20.8522 -83.4554 139° Southeast  Level Estimated
12:17AM 20.7514 -83.3614 139° Southeast  Level Estimated
12:18AM 20.6506 -83.2675 139° Southeast  Level Estimated
12:19AM 20.5497 -83.1737 139° Southeast  Level Estimated
12:20AM 20.4488 -83.0801 139° Southeast  Level Estimated
12:21AM 20.3478 -82.9865 139° Southeast  Level Estimated
12:22AM 20.2468 -82.8931 139° Southeast  Level Estimated
12:23AM 20.1457 -82.7998 139° Southeast  Level Estimated
12:24AM 20.0446 -82.7067 139° Southeast  Level Estimated
12:25AM 19.9434 -82.6136 139° Southeast  Level Estimated
12:26AM 19.8421 -82.5207 139° Southeast  Level Estimated
12:27AM 19.7409 -82.4279 139° Southeast  Level Estimated
12:28AM 19.6396 -82.3352 139° Southeast  Level Estimated
12:29AM 19.5382 -82.2426 139° Southeast  Level Estimated
12:30AM 19.4368 -82.1501 139° Southeast  Level Estimated
12:31AM 19.3353 -82.0578 139° Southeast  Level Estimated
12:32AM 19.2338 -81.9656 139° Southeast  Level Estimated
12:33AM 19.1322 -81.8734 139° Southeast  Level Estimated
12:34AM 19.0306 -81.7814 139° Southeast  Level Estimated
12:35AM 18.9290 -81.6896 139° Southeast  Level Estimated
12:36AM 18.8273 -81.5978 139° Southeast  Level Estimated
12:37AM 18.7256 -81.5061 140° Southeast  Level Estimated
12:38AM 18.6238 -81.4145 140° Southeast  Level Estimated
12:39AM 18.5219 -81.3231 140° Southeast  Level Estimated
12:40AM 18.4201 -81.2318 140° Southeast  Level Estimated
12:41AM 18.3182 -81.1405 140° Southeast  Level Estimated
12:42AM 18.2162 -81.0494 140° Southeast  Level Estimated
12:43AM 18.1142 -80.9584 140° Southeast  Level Estimated
12:44AM 18.0122 -80.8675 140° Southeast  Level Estimated
12:45AM 17.9101 -80.7767 140° Southeast  Level Estimated
12:46AM 17.8080 -80.6860 140° Southeast  Level Estimated
12:47AM 17.7058 -80.5954 140° Southeast  Level Estimated
12:48AM 17.6036 -80.5049 140° Southeast  Level Estimated
12:49AM 17.5013 -80.4145 140° Southeast  Level Estimated
12:50AM 17.3990 -80.3242 140° Southeast  Level Estimated
12:51AM 17.2967 -80.2340 140° Southeast  Level Estimated
12:52AM 17.1943 -80.1439 140° Southeast  Level Estimated
12:53AM 17.0919 -80.0539 140° Southeast  Level Estimated
12:54AM 16.9895 -79.9640 140° Southeast  Level Estimated
12:55AM 16.8870 -79.8742 140° Southeast  Level Estimated
12:56AM 16.7845 -79.7845 140° Southeast  Level Estimated
12:57AM 16.6819 -79.6949 140° Southeast  Level Estimated
12:58AM 16.5793 -79.6054 140° Southeast  Level Estimated
12:59AM 16.4766 -79.5160 140° Southeast  Level Estimated
01:00AM 16.3739 -79.4267 140° Southeast  Level Estimated
01:01AM 16.2712 -79.3375 140° Southeast  Level Estimated
01:02AM 16.1685 -79.2484 140° Southeast  Level Estimated
01:03AM 16.0657 -79.1593 140° Southeast  Level Estimated
01:04AM 15.9628 -79.0704 140° Southeast  Level Estimated
01:05AM 15.8600 -78.9816 140° Southeast  Level Estimated
01:06AM 15.7571 -78.8928 140° Southeast  Level Estimated
01:07AM 15.6541 -78.8041 140° Southeast  Level Estimated
01:08AM 15.5511 -78.7156 140° Southeast  Level Estimated
01:09AM 15.4481 -78.6271 140° Southeast  Level Estimated
01:10AM 15.3451 -78.5387 140° Southeast  Level Estimated
01:11AM 15.2420 -78.4503 140° Southeast  Level Estimated
01:12AM 15.1389 -78.3621 140° Southeast  Level Estimated
01:13AM 15.0357 -78.2740 140° Southeast  Level Estimated
01:14AM 14.9326 -78.1859 140° Southeast  Level Estimated
01:15AM 14.8293 -78.0979 141° Southeast  Level Estimated
01:16AM 14.7261 -78.0100 141° Southeast  Level Estimated
01:17AM 14.6228 -77.9222 141° Southeast  Level Estimated
01:18AM 14.5195 -77.8345 141° Southeast  Level Estimated
01:19AM 14.4161 -77.7469 141° Southeast  Level Estimated
01:20AM 14.3127 -77.6593 141° Southeast  Level Estimated
01:21AM 14.2093 -77.5718 141° Southeast  Level Estimated
01:22AM 14.1059 -77.4844 141° Southeast  Level Estimated
01:23AM 14.0024 -77.3971 141° Southeast  Level Estimated
01:24AM 13.8989 -77.3099 141° Southeast  Level Estimated
01:25AM 13.7954 -77.2227 141° Southeast  Level Estimated
01:26AM 13.6918 -77.1356 141° Southeast  Level Estimated
01:27AM 13.5882 -77.0486 141° Southeast  Level Estimated
01:28AM 13.4846 -76.9617 141° Southeast  Level Estimated
01:29AM 13.3809 -76.8748 141° Southeast  Level Estimated
01:30AM 13.2772 -76.7880 141° Southeast  Level Estimated
01:31AM 13.1735 -76.7013 141° Southeast  Level Estimated
01:32AM 13.0697 -76.6147 141° Southeast  Level Estimated
01:33AM 12.9660 -76.5281 141° Southeast  Level Estimated
01:34AM 12.8621 -76.4417 141° Southeast  Level Estimated
01:35AM 12.7583 -76.3552 141° Southeast  Level Estimated
01:36AM 12.6544 -76.2689 141° Southeast  Level Estimated
01:37AM 12.5506 -76.1826 141° Southeast  Level Estimated
01:38AM 12.4465 -76.0962 141° Southeast  Level Estimated
01:39AM 12.3423 -76.0099 141° Southeast  Level Estimated
01:40AM 12.2382 -75.9237 141° Southeast  Level Estimated
01:41AM 12.1340 -75.8376 141° Southeast  Level Estimated
01:42AM 12.0298 -75.7515 141° Southeast  Level Estimated
01:43AM 11.9255 -75.6655 141° Southeast  Level Estimated
01:44AM 11.8213 -75.5795 141° Southeast  Level Estimated
01:45AM 11.7170 -75.4936 141° Southeast  Level Estimated
01:46AM 11.6126 -75.4078 141° Southeast  Level Estimated
01:47AM 11.5083 -75.3220 141° Southeast  Level Estimated
01:48AM 11.4039 -75.2363 141° Southeast  Level Estimated
01:48AM 12.6060 -73.1910 141° Southeast 505 581 36,800  Level FlightAware
01:49AM 11.2996 -75.1507 141° Southeast  Level Estimated
01:49AM 12.5420 -73.1420 143° Southeast 505 581 36,800  Level FlightAware
01:50AM 12.4020 -73.0370 144° Southeast 504 580 37,000 60 Climbing FlightAware
01:51AM 12.3020 -72.9600 143° Southeast 504 580 37,000  Level FlightAware
01:52AM 12.2450 -72.9160 143° Southeast 504 580 37,000  Level FlightAware
01:52AM 12.1880 -72.8730 144° Southeast 504 580 37,000  Level FlightAware
01:53AM 12.0790 -72.7940 145° Southeast 499 574 37,000  Level FlightAware
01:54AM 11.9950 -72.7310 144° Southeast 501 577 37,000  Level FlightAware
01:55AM 11.9140 -72.6690 143° Southeast 502 578 37,000  Level FlightAware
01:55AM 11.8570 -72.6260 144° Southeast 502 578 37,000  Level FlightAware
01:56AM 11.7200 -72.5250 144° Southeast 502 578 37,000  Level FlightAware
01:57AM 11.6320 -72.4580 143° Southeast 502 578 37,000  Level FlightAware
01:58AM 11.5750 -72.4150 144° Southeast 502 578 37,000  Level FlightAware
01:58AM 11.4820 -72.3470 144° Southeast 37,000  Level FlightAware
02:01AM 11.2572 -72.1561 140° Southeast  Level FlightAware Approximate
02:02AM 11.1456 -72.0733 144° Southeast  Level FlightAware Approximate
02:02AM 11.0320 -72.0250 144° Southeast 503 579 37,000  Level FlightAware
02:03AM 10.9430 -71.9640 146° Southeast 503 579 37,000  Level FlightAware
02:04AM 10.8790 -71.9200 146° Southeast 502 578 37,000  Level FlightAware
02:04AM 10.8000 -71.8650 146° Southeast 502 578 37,000  Level FlightAware
02:05AM 10.7310 -71.8020 138° Southeast 494 568 37,000  Level FlightAware
02:06AM 10.6910 -71.7380 122° Southeast 493 567 37,000  Level FlightAware
02:06AM 10.6420 -71.6310 115° Southeast 493 567 37,000  Level FlightAware
02:07AM 10.5950 -71.5510 121° Southeast 493 567 37,000  Level FlightAware
02:08AM 10.5670 -71.4370 104° East 497 572 37,000  Level FlightAware
02:08AM 10.5280 -71.3460 114° Southeast 498 573 37,000  Level FlightAware
02:09AM 10.4960 -71.2700 113° Southeast 497 572 37,000  Level FlightAware
02:10AM 10.4590 -71.1830 113° Southeast 496 571 37,000  Level FlightAware
02:12AM 10.3890 -70.9610 108° East 494 568 37,000  Level FlightAware
02:12AM 10.3680 -70.8580 102° East 495 570 37,000  Level FlightAware
02:13AM 10.3490 -70.7660 102° East 495 570 37,000  Level FlightAware
02:14AM 10.3280 -70.6640 102° East 493 567 37,000  Level FlightAware
02:14AM 10.3080 -70.5620 101° East 492 566 37,000  Level FlightAware
02:15AM 10.2910 -70.4700 101° East 489 563 37,000  Level FlightAware
02:16AM 10.2730 -70.3700 100° East 487 560 37,000  Level FlightAware
02:16AM 10.2580 -70.2900 101° East 487 560 37,000  Level FlightAware
02:17AM 10.2420 -70.1990 100° East 484 557 37,000  Level FlightAware
02:18AM 10.2250 -70.1080 101° East 484 557 37,000  Level FlightAware
02:18AM 10.2080 -70.0090 100° East 483 556 37,000  Level FlightAware
02:19AM 10.1970 -69.9410 99° East 482 555 37,000  Level FlightAware
02:20AM 10.1900 -69.8510 95° East 482 555 37,000  Level FlightAware
02:20AM 10.1840 -69.7510 93° East 483 556 37,000  Level FlightAware
02:21AM 10.1780 -69.6600 94° East 483 556 37,000  Level FlightAware
02:22AM 10.1760 -69.5580 91° East 484 557 37,000  Level FlightAware
02:22AM 10.1770 -69.4660 89° East 483 556 37,000  Level FlightAware
02:23AM 10.1800 -69.3790 88° East 483 556 37,000  Level FlightAware
02:24AM 10.1860 -69.2850 86° East 484 557 37,000  Level FlightAware
02:24AM 10.1920 -69.2040 86° East 485 558 37,000  Level FlightAware
02:25AM 10.1930 -69.1040 89° East 482 555 37,000  Level FlightAware
02:26AM 10.1790 -69.0120 99° East 485 558 37,000  Level FlightAware
02:27AM 10.1530 -68.9150 105° East 478 550 37,000  Level FlightAware
02:27AM 10.1180 -68.8310 113° Southeast 479 551 37,000  Level FlightAware
02:28AM 10.0690 -68.7440 120° Southeast 478 550 37,000  Level FlightAware
02:29AM 10.0170 -68.6720 126° Southeast 472 543 37,000  Level FlightAware
02:29AM 9.9650 -68.6170 134° Southeast 467 537 37,000  Level FlightAware
02:30AM 9.8930 -68.5510 138° Southeast 461 531 37,000  Level FlightAware
02:31AM 9.8270 -68.4920 139° Southeast 461 531 37,000  Level FlightAware
02:31AM 9.7650 -68.4450 143° Southeast 462 532 37,000  Level FlightAware
02:32AM 9.6960 -68.3930 143° Southeast 462 532 37,000  Level FlightAware
02:33AM 9.6250 -68.3410 144° Southeast 469 540 37,000  Level FlightAware
02:33AM 9.5400 -68.2900 149° Southeast 468 539 37,000  Level FlightAware
02:34AM 9.4630 -68.2500 153° Southeast 470 541 37,000  Level FlightAware
02:35AM 9.3760 -68.2030 152° Southeast 473 544 37,000  Level FlightAware
02:35AM 9.3030 -68.1590 149° Southeast 468 539 37,000  Level FlightAware
02:36AM 9.2160 -68.1070 149° Southeast 470 541 37,000  Level FlightAware
02:37AM 9.1180 -68.0510 151° Southeast 478 550 37,000  Level FlightAware
02:38AM 9.0320 -68.0010 150° Southeast 479 551 37,000  Level FlightAware
02:38AM 8.9530 -67.9550 150° Southeast 481 554 37,000  Level FlightAware
02:39AM 8.8710 -67.9070 150° Southeast 481 554 37,000  Level FlightAware
02:40AM 8.7880 -67.8590 150° Southeast 481 554 37,000  Level FlightAware
02:41AM 8.7180 -67.8190 151° Southeast 481 554 37,000  Level FlightAware
02:41AM 8.6390 -67.7730 150° Southeast 481 554 37,000  Level FlightAware
02:42AM 8.5800 -67.7380 150° Southeast 481 554 37,000  Level FlightAware
02:43AM 8.5020 -67.6920 150° Southeast 481 554 37,000  Level FlightAware
02:43AM 8.4610 -67.6690 151° Southeast 481 554 37,000  Level FlightAware
02:44AM 8.3820 -67.6230 150° Southeast 481 554 37,000  Level FlightAware
02:45AM 8.3230 -67.5880 150° Southeast 481 554 37,000  Level FlightAware
02:45AM 8.2640 -67.5540 150° Southeast 481 554 37,000  Level FlightAware
02:46AM 8.1860 -67.5080 150° Southeast 481 554 37,000  Level FlightAware
02:47AM 8.1250 -67.4730 150° Southeast 481 554 37,000  Level FlightAware
02:47AM 8.0660 -67.4380 150° Southeast 481 554 37,000  Level FlightAware
02:48AM 7.9880 -67.3920 150° Southeast 481 554 37,000  Level FlightAware
02:49AM 7.9290 -67.3580 150° Southeast 481 554 37,000  Level FlightAware
02:49AM 7.8500 -67.3120 150° Southeast 481 554 37,000  Level FlightAware
02:50AM 7.7910 -67.2780 150° Southeast 481 554 37,000  Level FlightAware
02:53AM 7.5100 -67.0969 147° Southeast  Level Estimated
02:54AM 7.3990 -67.0256 147° Southeast  Level Estimated
02:55AM 7.2881 -66.9542 147° Southeast  Level Estimated
02:56AM 7.1771 -66.8829 147° Southeast  Level Estimated
02:57AM 7.0661 -66.8116 147° Southeast  Level Estimated
02:58AM 6.9551 -66.7403 147° Southeast  Level Estimated
02:59AM 6.8441 -66.6691 147° Southeast  Level Estimated
03:00AM 6.7331 -66.5979 148° Southeast  Level Estimated
03:01AM 6.6220 -66.5267 148° Southeast  Level Estimated
03:02AM 6.5110 -66.4556 148° Southeast  Level Estimated
03:03AM 6.4000 -66.3845 148° Southeast  Level Estimated
03:04AM 6.2889 -66.3134 148° Southeast  Level Estimated
03:05AM 6.1778 -66.2424 148° Southeast  Level Estimated
03:06AM 6.0667 -66.1714 148° Southeast  Level Estimated
03:07AM 5.9556 -66.1004 148° Southeast  Level Estimated
03:08AM 5.8446 -66.0294 148° Southeast  Level Estimated
03:09AM 5.7334 -65.9585 148° Southeast  Level Estimated
03:10AM 5.6223 -65.8876 148° Southeast  Level Estimated
03:11AM 5.5112 -65.8168 148° Southeast  Level Estimated
03:12AM 5.4001 -65.7459 148° Southeast  Level Estimated
03:13AM 5.2889 -65.6751 148° Southeast  Level Estimated
03:14AM 5.1778 -65.6043 148° Southeast  Level Estimated
03:15AM 5.0666 -65.5336 148° Southeast  Level Estimated
03:16AM 4.9555 -65.4628 148° Southeast  Level Estimated
03:17AM 4.8443 -65.3921 148° Southeast  Level Estimated
03:18AM 4.7331 -65.3214 148° Southeast  Level Estimated
03:19AM 4.6220 -65.2508 148° Southeast  Level Estimated
03:20AM 4.5108 -65.1801 148° Southeast  Level Estimated
03:21AM 4.3996 -65.1095 148° Southeast  Level Estimated
03:22AM 4.2884 -65.0389 148° Southeast  Level Estimated
03:23AM 4.1772 -64.9683 148° Southeast  Level Estimated
03:24AM 4.0659 -64.8978 148° Southeast  Level Estimated
03:25AM 3.9547 -64.8272 148° Southeast  Level Estimated
03:26AM 3.8435 -64.7567 148° Southeast  Level Estimated
03:27AM 3.7323 -64.6862 148° Southeast  Level Estimated
03:28AM 3.6210 -64.6157 148° Southeast  Level Estimated
03:29AM 3.5098 -64.5452 148° Southeast  Level Estimated
03:30AM 3.3985 -64.4748 148° Southeast  Level Estimated
03:31AM 3.2873 -64.4043 148° Southeast  Level Estimated
03:32AM 3.1760 -64.3339 148° Southeast  Level Estimated
03:33AM 3.0647 -64.2635 148° Southeast  Level Estimated
03:34AM 2.9535 -64.1931 148° Southeast  Level Estimated
03:35AM 2.8422 -64.1227 148° Southeast  Level Estimated
03:36AM 2.7309 -64.0524 148° Southeast  Level Estimated
03:37AM 2.6196 -63.9820 148° Southeast  Level Estimated
03:38AM 2.5083 -63.9117 148° Southeast  Level Estimated
03:39AM 2.3967 -63.8411 148° Southeast  Level Estimated
03:40AM 2.2850 -63.7705 148° Southeast  Level Estimated
03:41AM 2.1733 -63.7000 148° Southeast  Level Estimated
03:42AM 2.0616 -63.6294 148° Southeast  Level Estimated
03:43AM 1.9499 -63.5589 148° Southeast  Level Estimated
03:44AM 1.8382 -63.4884 148° Southeast  Level Estimated
03:45AM 1.7265 -63.4179 148° Southeast  Level Estimated
03:46AM 1.6148 -63.3474 148° Southeast  Level Estimated
03:47AM 1.5031 -63.2769 148° Southeast  Level Estimated
03:48AM 1.3914 -63.2064 148° Southeast  Level Estimated
03:49AM 1.2796 -63.1359 148° Southeast  Level Estimated
03:50AM 1.1679 -63.0654 148° Southeast  Level Estimated
03:51AM 1.0562 -62.9949 148° Southeast  Level Estimated
03:52AM 0.9445 -62.9245 148° Southeast  Level Estimated
03:53AM 0.8328 -62.8540 148° Southeast  Level Estimated
03:54AM 0.7211 -62.7836 148° Southeast  Level Estimated
03:55AM 0.6093 -62.7131 148° Southeast  Level Estimated
03:56AM 0.4976 -62.6427 148° Southeast  Level Estimated
03:57AM 0.3859 -62.5722 148° Southeast  Level Estimated
03:58AM 0.2742 -62.5018 148° Southeast  Level Estimated
03:59AM 0.1625 -62.4313 148° Southeast  Level Estimated
04:00AM 0.0507 -62.3609 148° Southeast  Level Estimated
04:01AM -0.0610 -62.2904 148° Southeast  Level Estimated
04:02AM -0.1727 -62.2200 148° Southeast  Level Estimated
04:03AM -0.2844 -62.1495 148° Southeast  Level Estimated
04:04AM -0.3961 -62.0790 148° Southeast  Level Estimated
04:05AM -0.5079 -62.0086 148° Southeast  Level Estimated
04:06AM -0.6196 -61.9381 148° Southeast  Level Estimated
04:07AM -0.7313 -61.8677 148° Southeast  Level Estimated
04:08AM -0.8430 -61.7972 148° Southeast  Level Estimated
04:08AM -1.3820 -61.3970 148° Southeast 497 572 37,000  Level FlightAware
04:08AM -1.4550 -61.3420 143° Southeast 497 572 37,000  Level FlightAware
04:09AM -1.5280 -61.2860 143° Southeast 496 571 37,000  Level FlightAware
04:09AM -1.5950 -61.2350 143° Southeast 495 570 37,000  Level FlightAware
04:10AM -1.6760 -61.1740 143° Southeast 496 571 37,000  Level FlightAware
04:11AM -1.7480 -61.1180 142° Southeast 496 571 37,000  Level FlightAware
04:12AM -1.8270 -61.0570 142° Southeast 497 572 37,000  Level FlightAware
04:12AM -1.8980 -61.0030 143° Southeast 498 573 37,000  Level FlightAware
04:13AM -1.9720 -60.9460 142° Southeast 497 572 37,000  Level FlightAware
04:14AM -2.0180 -60.9100 142° Southeast 498 573 37,000  Level FlightAware
04:14AM -2.1250 -60.8280 143° Southeast 499 574 37,000  Level FlightAware
04:15AM -2.1980 -60.7720 143° Southeast 501 577 37,000  Level FlightAware
04:16AM -2.2730 -60.7150 143° Southeast 501 577 37,000  Level FlightAware
04:16AM -2.3260 -60.6730 142° Southeast 501 577 37,000  Level FlightAware
04:17AM -2.4070 -60.6110 143° Southeast 502 578 37,000  Level FlightAware
04:18AM -2.4920 -60.5450 142° Southeast 501 577 37,000  Level FlightAware
04:18AM -2.5570 -60.4900 140° Southeast 501 577 37,000  Level FlightAware
04:19AM -2.6320 -60.4230 138° Southeast 501 577 37,000  Level FlightAware
04:20AM -2.7020 -60.3600 138° Southeast 501 577 37,000  Level FlightAware
04:20AM -2.7760 -60.2920 137° Southeast 500 575 37,000  Level FlightAware
04:21AM -2.8450 -60.2310 139° Southeast 500 575 37,000  Level FlightAware
04:22AM -2.9210 -60.1620 138° Southeast 500 575 37,000  Level FlightAware
04:22AM -2.9870 -60.1030 138° Southeast 499 574 37,000  Level FlightAware
04:23AM -3.0550 -60.0510 143° Southeast 501 577 37,000  Level FlightAware
04:24AM -3.1410 -60.0080 153° Southeast 502 578 37,000  Level FlightAware
04:24AM -3.2330 -59.9650 155° Southeast 503 579 37,000  Level FlightAware
04:25AM -3.3210 -59.9250 156° South 504 580 37,000  Level FlightAware
04:26AM -3.4080 -59.8850 155° Southeast 504 580 37,000  Level FlightAware
04:27AM -3.5000 -59.8420 155° Southeast 505 581 37,000  Level FlightAware
04:27AM -3.5850 -59.8020 155° Southeast 505 581 37,000  Level FlightAware
04:28AM -3.6690 -59.7580 152° Southeast 505 581 37,000  Level FlightAware
04:29AM -3.7500 -59.7110 150° Southeast 506 582 37,000  Level FlightAware
04:29AM -3.8310 -59.6640 150° Southeast 507 583 37,000  Level FlightAware
04:30AM -3.9040 -59.6210 150° Southeast 508 585 37,000  Level FlightAware
04:30AM -3.9850 -59.5740 150° Southeast 509 586 37,000  Level FlightAware
04:31AM -4.0750 -59.5210 150° Southeast 509 586 37,000  Level FlightAware
04:32AM -4.1520 -59.4770 150° Southeast 509 586 37,000  Level FlightAware
04:33AM -4.2540 -59.4170 150° Southeast 509 586 37,000  Level FlightAware
04:34AM -4.3360 -59.3670 149° Southeast 509 586 37,000  Level FlightAware
04:34AM -4.3980 -59.3300 149° Southeast 509 586 37,000  Level FlightAware
04:35AM -4.5210 -59.2550 149° Southeast 509 586 37,000  Level FlightAware
04:36AM -4.5850 -59.2170 149° Southeast 509 586 37,000  Level FlightAware
04:37AM -4.7080 -59.1430 149° Southeast 509 586 37,000  Level FlightAware
04:38AM -4.7890 -59.0940 149° Southeast 509 586 37,000  Level FlightAware
04:39AM -4.8510 -59.0570 149° Southeast 509 586 37,000  Level FlightAware
04:39AM -4.9330 -59.0070 149° Southeast 509 586 37,000  Level FlightAware
04:40AM -4.9970 -58.9690 149° Southeast 509 586 37,000  Level FlightAware
04:41AM -5.0790 -58.9190 149° Southeast 509 586 37,000  Level FlightAware
04:41AM -5.1460 -58.8790 149° Southeast 509 586 37,000  Level FlightAware
04:42AM -5.2280 -58.8290 149° Southeast 509 586 37,000  Level FlightAware
04:45AM -5.4875 -58.6661 148° Southeast  Level Estimated
04:46AM -5.5995 -58.5958 148° Southeast  Level Estimated
04:47AM -5.7115 -58.5254 148° Southeast  Level Estimated
04:48AM -5.8234 -58.4550 148° Southeast  Level Estimated
04:49AM -5.9354 -58.3846 148° Southeast  Level Estimated
04:50AM -6.0473 -58.3141 148° Southeast  Level Estimated
04:51AM -6.1593 -58.2436 148° Southeast  Level Estimated
04:52AM -6.2712 -58.1731 148° Southeast  Level Estimated
04:53AM -6.3832 -58.1025 148° Southeast  Level Estimated
04:54AM -6.4951 -58.0320 148° Southeast  Level Estimated
04:55AM -6.6070 -57.9613 148° Southeast  Level Estimated
04:56AM -6.7189 -57.8907 148° Southeast  Level Estimated
04:57AM -6.8308 -57.8200 148° Southeast  Level Estimated
04:58AM -6.9427 -57.7493 148° Southeast  Level Estimated
04:59AM -7.0545 -57.6786 148° Southeast  Level Estimated
05:00AM -7.1664 -57.6078 148° Southeast  Level Estimated
05:01AM -7.2783 -57.5370 148° Southeast  Level Estimated
05:02AM -7.3901 -57.4661 148° Southeast  Level Estimated
05:03AM -7.5019 -57.3953 148° Southeast  Level Estimated
05:04AM -7.6137 -57.3243 148° Southeast  Level Estimated
05:05AM -7.7255 -57.2534 148° Southeast  Level Estimated
05:06AM -7.8373 -57.1824 148° Southeast  Level Estimated
05:07AM -7.9491 -57.1114 148° Southeast  Level Estimated
05:08AM -8.0609 -57.0403 148° Southeast  Level Estimated
05:09AM -8.1726 -56.9692 148° Southeast  Level Estimated
05:10AM -8.2844 -56.8980 148° Southeast  Level Estimated
05:11AM -8.3961 -56.8268 148° Southeast  Level Estimated
05:12AM -8.5078 -56.7556 148° Southeast  Level Estimated
05:13AM -8.6195 -56.6843 148° Southeast  Level Estimated
05:14AM -8.7312 -56.6130 148° Southeast  Level Estimated
05:15AM -8.8429 -56.5417 148° Southeast  Level Estimated
05:16AM -8.9545 -56.4703 148° Southeast  Level Estimated
05:17AM -9.0662 -56.3988 148° Southeast  Level Estimated
05:18AM -9.1778 -56.3273 148° Southeast  Level Estimated
05:19AM -9.2894 -56.2558 148° Southeast  Level Estimated
05:20AM -9.4009 -56.1843 148° Southeast  Level Estimated
05:21AM -9.5122 -56.1128 148° Southeast  Level Estimated
05:22AM -9.6236 -56.0413 148° Southeast  Level Estimated
05:23AM -9.7350 -55.9697 148° Southeast  Level Estimated
05:24AM -9.8463 -55.8981 148° Southeast  Level Estimated
05:25AM -9.9577 -55.8264 148° Southeast  Level Estimated
05:26AM -10.0690 -55.7546 148° Southeast  Level Estimated
05:27AM -10.1803 -55.6828 148° Southeast  Level Estimated
05:28AM -10.2916 -55.6110 148° Southeast  Level Estimated
05:29AM -10.4029 -55.5391 148° Southeast  Level Estimated
05:30AM -10.5141 -55.4672 148° Southeast  Level Estimated
05:31AM -10.6254 -55.3952 148° Southeast  Level Estimated
05:32AM -10.7366 -55.3231 148° Southeast  Level Estimated
05:33AM -10.8478 -55.2510 148° Southeast  Level Estimated
05:34AM -10.9592 -55.1787 148° Southeast  Level Estimated
05:35AM -11.0706 -55.1064 147° Southeast  Level Estimated
05:36AM -11.1819 -55.0340 147° Southeast  Level Estimated
05:37AM -11.2933 -54.9616 147° Southeast  Level Estimated
05:38AM -11.4046 -54.8891 147° Southeast  Level Estimated
05:39AM -11.5159 -54.8165 147° Southeast  Level Estimated
05:40AM -11.6272 -54.7439 147° Southeast  Level Estimated
05:41AM -11.7385 -54.6712 147° Southeast  Level Estimated
05:42AM -11.8497 -54.5985 147° Southeast  Level Estimated
05:43AM -11.9609 -54.5257 147° Southeast  Level Estimated
05:44AM -12.0721 -54.4529 147° Southeast  Level Estimated
05:45AM -12.1833 -54.3800 147° Southeast  Level Estimated
05:46AM -12.2945 -54.3070 147° Southeast  Level Estimated
05:47AM -12.4057 -54.2340 147° Southeast  Level Estimated
05:48AM -12.5168 -54.1609 147° Southeast  Level Estimated
05:49AM -12.6279 -54.0877 147° Southeast  Level Estimated
05:50AM -12.7390 -54.0145 147° Southeast  Level Estimated
05:51AM -12.8500 -53.9412 147° Southeast  Level Estimated
05:52AM -12.9611 -53.8679 147° Southeast  Level Estimated
05:53AM -13.0721 -53.7944 147° Southeast  Level Estimated
05:54AM -13.1831 -53.7210 147° Southeast  Level Estimated
05:55AM -13.2941 -53.6474 147° Southeast  Level Estimated
05:56AM -13.4051 -53.5738 147° Southeast  Level Estimated
05:57AM -13.5161 -53.5001 147° Southeast  Level Estimated
05:58AM -13.6270 -53.4263 147° Southeast  Level Estimated
05:59AM -13.7379 -53.3525 147° Southeast  Level Estimated
06:00AM -13.8488 -53.2786 147° Southeast  Level Estimated
06:01AM -13.9596 -53.2047 147° Southeast  Level Estimated
06:02AM -14.0705 -53.1306 147° Southeast  Level Estimated
06:03AM -14.1813 -53.0565 147° Southeast  Level Estimated
06:04AM -14.2921 -52.9823 147° Southeast  Level Estimated
06:05AM -14.4028 -52.9081 147° Southeast  Level Estimated
06:06AM -14.5136 -52.8338 147° Southeast  Level Estimated
06:07AM -14.6243 -52.7594 147° Southeast  Level Estimated
06:08AM -14.7350 -52.6849 147° Southeast  Level Estimated
06:09AM -14.8457 -52.6103 147° Southeast  Level Estimated
06:10AM -14.9563 -52.5357 147° Southeast  Level Estimated
06:11AM -15.0670 -52.4610 147° Southeast  Level Estimated
06:12AM -15.1776 -52.3862 147° Southeast  Level Estimated
06:13AM -15.2881 -52.3114 147° Southeast  Level Estimated
06:14AM -15.3987 -52.2364 147° Southeast  Level Estimated
06:15AM -15.5092 -52.1614 147° Southeast  Level Estimated
06:16AM -15.6197 -52.0863 147° Southeast  Level Estimated
06:17AM -15.7302 -52.0111 147° Southeast  Level Estimated
06:18AM -15.8407 -51.9359 147° Southeast  Level Estimated
06:19AM -15.9511 -51.8605 147° Southeast  Level Estimated
06:20AM -16.0615 -51.7851 147° Southeast  Level Estimated
06:21AM -16.1719 -51.7096 147° Southeast  Level Estimated
06:22AM -16.2822 -51.6340 147° Southeast  Level Estimated
06:23AM -16.3925 -51.5583 147° Southeast  Level Estimated
06:24AM -16.5028 -51.4825 147° Southeast  Level Estimated
06:25AM -16.6131 -51.4067 147° Southeast  Level Estimated
06:26AM -16.7233 -51.3307 147° Southeast  Level Estimated
06:27AM -16.8335 -51.2547 147° Southeast  Level Estimated
06:28AM -16.9437 -51.1786 147° Southeast  Level Estimated
06:29AM -17.0539 -51.1024 147° Southeast  Level Estimated
06:30AM -17.1640 -51.0261 147° Southeast  Level Estimated
06:30AM -18.4080 -50.3550 146° Southeast 518 596 37,000  Level FlightAware
06:31AM -17.2741 -50.9497 146° Southeast  Level Estimated
06:31AM -18.4660 -50.3080 142° Southeast 518 596 37,000  Level FlightAware
06:32AM -18.5430 -50.2440 142° Southeast 518 596 37,000  Level FlightAware
06:32AM -18.6020 -50.1950 142° Southeast 518 596 37,000  Level FlightAware
06:33AM -18.7390 -50.0850 143° Southeast 522 601 37,000  Level FlightAware
06:34AM -18.8120 -50.0260 143° Southeast 524 603 37,000  Level FlightAware
06:35AM -18.8980 -49.9550 142° Southeast 524 603 37,000  Level FlightAware
06:35AM -18.9730 -49.8930 142° Southeast 524 603 37,000  Level FlightAware
06:36AM -19.0620 -49.8190 142° Southeast 522 601 37,000  Level FlightAware
06:37AM -19.1270 -49.7660 142° Southeast 521 600 37,000  Level FlightAware
06:37AM -19.1870 -49.7170 142° Southeast 522 601 37,000  Level FlightAware
06:38AM -19.3020 -49.6210 142° Southeast 521 600 37,000  Level FlightAware
06:39AM -19.3800 -49.5560 142° Southeast 522 601 37,000  Level FlightAware
06:39AM -19.4530 -49.4960 142° Southeast 521 600 37,000  Level FlightAware
06:40AM -19.5260 -49.4340 141° Southeast 521 600 37,000  Level FlightAware
06:41AM -19.6000 -49.3730 142° Southeast 521 600 37,000  Level FlightAware
06:41AM -19.6610 -49.3220 142° Southeast 521 600 37,000  Level FlightAware
06:42AM -19.7810 -49.2220 142° Southeast 521 600 37,000  Level FlightAware
06:43AM -19.8570 -49.1590 142° Southeast 523 602 37,000  Level FlightAware
06:44AM -19.9350 -49.0930 142° Southeast 525 604 37,000  Level FlightAware
06:44AM -20.0180 -49.0230 142° Southeast 525 604 37,000  Level FlightAware
06:45AM -20.0890 -48.9630 142° Southeast 526 605 37,000  Level FlightAware
06:46AM -20.1550 -48.9090 142° Southeast 527 606 37,000  Level FlightAware
06:46AM -20.2570 -48.8220 141° Southeast 527 606 37,000  Level FlightAware
06:47AM -20.3200 -48.7690 142° Southeast 528 608 37,000  Level FlightAware
06:48AM -20.4010 -48.7010 142° Southeast 527 606 37,000  Level FlightAware
06:48AM -20.4880 -48.6270 141° Southeast 528 608 37,000  Level FlightAware
06:49AM -20.5490 -48.5760 142° Southeast 528 608 37,000  Level FlightAware
06:50AM -20.6080 -48.5260 142° Southeast 528 608 37,000  Level FlightAware
06:50AM -20.7100 -48.4400 142° Southeast 526 605 37,000  Level FlightAware
06:51AM -20.7970 -48.3650 141° Southeast 525 604 37,000  Level FlightAware
06:52AM -20.8720 -48.3010 141° Southeast 525 604 37,000  Level FlightAware
06:52AM -20.9490 -48.2360 142° Southeast 525 604 37,000  Level FlightAware
06:53AM -21.0170 -48.1780 141° Southeast 526 605 37,000  Level FlightAware
06:54AM -21.1020 -48.1050 141° Southeast 527 606 37,000  Level FlightAware
06:55AM -21.2090 -48.0140 142° Southeast 527 606 37,000  Level FlightAware
06:55AM -21.2850 -47.9490 141° Southeast 527 606 37,000  Level FlightAware
06:56AM -21.3570 -47.8870 141° Southeast 527 606 37,000  Level FlightAware
06:57AM -21.4300 -47.8240 141° Southeast 527 606 37,000  Level FlightAware
06:57AM -21.5100 -47.7550 141° Southeast 528 608 37,000  Level FlightAware
06:58AM -21.5980 -47.6900 146° Southeast 516 594 37,000 -240 Level FlightAware
06:59AM -21.6800 -47.6390 150° Southeast 508 585 36,700 -1,620 Descending FlightAware
07:00AM -21.7660 -47.5890 152° Southeast 511 588 34,800 -2,580 Descending FlightAware
07:00AM -21.8550 -47.5360 151° Southeast 506 582 33,100 -3,180 Descending FlightAware
07:01AM -21.9420 -47.4840 151° Southeast 514 592 30,400 -2,880 Descending FlightAware
07:02AM -22.0350 -47.4270 150° Southeast 500 575 28,900 -1,860 Descending FlightAware
07:02AM -22.0820 -47.3990 151° Southeast 493 567 28,000 -1,920 Descending FlightAware
07:03AM -22.1700 -47.3450 150° Southeast 481 554 26,400 -2,340 Descending FlightAware
07:04AM -22.2790 -47.2780 150° Southeast 466 536 24,500 -2,280 Descending FlightAware
07:04AM -22.3560 -47.2320 151° Southeast 453 521 23,200 -2,040 Descending FlightAware
07:05AM -22.4330 -47.1850 151° Southeast 445 512 21,700 -2,040 Descending FlightAware
07:06AM -22.5040 -47.1420 151° Southeast 434 499 20,400 -1,200 Descending FlightAware
07:07AM -22.5840 -47.0960 152° Southeast 429 494 20,000 -840 Descending FlightAware
07:07AM -22.6310 -47.0750 158° South 421 484 19,300 -1,740 Descending FlightAware
07:08AM -22.7180 -47.0380 159° South 411 473 17,800 -2,100 Descending FlightAware
07:09AM -22.7940 -47.0070 159° South 399 459 16,500 -1,980 Descending FlightAware
07:09AM -22.8640 -46.9770 158° South 395 455 15,200 -2,040 Descending FlightAware
07:10AM -22.9330 -46.9480 159° South 393 452 13,800 -1,980 Descending FlightAware
07:10AM -22.9890 -46.9250 159° South 376 433 12,800 -1,380 Descending FlightAware
07:11AM -23.0600 -46.8950 159° South 315 362 12,000 -780 Descending FlightAware
07:12AM -23.1150 -46.8720 159° South 301 346 11,700 -1,020 Descending FlightAware
07:12AM -23.1570 -46.8540 158° South 292 336 10,800 -2,160 Descending FlightAware
07:13AM -23.1860 -46.8420 159° South 299 344 9,700 -1,920 Descending FlightAware
07:13AM -23.2020 -46.8350 158° South 301 346 9,400 -1,380 Descending FlightAware
07:14AM -23.2610 -46.8100 159° South 292 336 8,100 -1,440 Descending FlightAware
07:14AM -23.2870 -46.7990 159° South 277 319 7,700 -1,020 Descending FlightAware
07:15AM -23.3260 -46.7820 158° South 253 291 7,300 -720 Descending FlightAware
07:15AM -23.3600 -46.7680 159° South 240 276 7,100 -480 Descending FlightAware
07:15AM -23.3730 -46.7610 154° Southeast 236 272 7,000 -840 Descending FlightAware
07:16AM -23.3980 -46.7390 141° Southeast 229 264 6,500 -1,080 Descending FlightAware
07:16AM -23.4120 -46.7260 140° Southeast 225 259 6,200 -960 Descending FlightAware
07:17AM -23.4330 -46.7060 139° Southeast 213 245 5,800 -840 Descending FlightAware
07:17AM -23.4410 -46.6980 137° Southeast 212 244 5,600 -780 Descending FlightAware
07:17AM -23.4480 -46.6900 134° Southeast 214 246 5,400 -420 Descending FlightAware
07:18AM -23.4660 -46.6510 117° Southeast 211 243 5,200 -660 Descending FlightAware
07:18AM -23.4740 -46.6250 109° East 213 245 4,800 -1,440 Descending FlightAware
07:18AM -23.4720 -46.6120 80° East 208 239 4,600 -1,080 Descending FlightAware
07:19AM -23.4650 -46.5850 74° East 205 236 4,100 -1,140 Descending FlightAware
07:19AM -23.4570 -46.5540 74° East 188 216 3,500 -1,020 Descending FlightAware
07:20AM -23.4510 -46.5310 74° East 166 191 3,100 -840 Descending FlightAware
07:20AM -23.4460 -46.5130 73° East 156 180 2,800 -780 Descending FlightAware
07:21AM -23.4410 -46.4950 73° East 149 171 2,500 -780 Descending FlightAware
07:21AM -23.4350 -46.4710 75° East 88 101 -4,080 Descending FlightAware
07:22AM -23.4320 -46.4610 72° East 68 78  Level FlightAware